Terminal Aerodrome Forecast
Issued by NWS

Home | Current Version | Previous Version | Text Only | Print | Product List | Glossary On
Versions: 1 2 3 4 5 6 7 8 9 10 11 12 13 14
000
FTUS43 KIND 180009 AAA
TAFBMG
TAF AMD
KBMG 180009Z 1800/1824 20005KT P6SM BKN025
     FM180200 20005KT P6SM BKN015
     FM180500 20005KT P6SM BKN007
     FM180700 21005KT 4SM BR OVC003
     FM181700 22005KT P6SM BKN007
     FM182100 23007KT P6SM BKN020
      AMD LTD TO CLD VIS AND WIND 1802/1814=

USA.gov is the U.S. government's official web portal to all federal, state and local government web resources and services.